Time;durP1;ratioP1;P1;durP2;ratioP2;P2;SDS_P1;SDS_P2;PMS_P1;PMS_P2;Temp;Humidity;BMP_temperature;BMP_pressure;BME280_temperature;BME280_humidity;BME280_pressure;Samples;Min_cycle;Max_cycle;Signal;HPM_P1;HPM_P2
2022/09/20 00:00:50;;;;;;;7.32;2.00;;;11.50;99.90;;;;;;5039436;28;20052;-68
2022/09/20 00:03:16;;;;;;;;;;;11.40;99.90;;;;;;5058533;28;20032;-69
2022/09/20 00:05:43;;;;;;;4.28;1.80;;;11.50;99.90;;;;;;5058231;28;19909;-69
2022/09/20 00:08:13;;;;;;;6.13;2.22;;;11.40;99.90;;;;;;5057754;28;20033;-68
2022/09/20 00:10:39;;;;;;;4.38;1.90;;;11.30;99.90;;;;;;5039171;28;20074;-68
2022/09/20 00:13:07;;;;;;;7.10;2.17;;;11.40;99.90;;;;;;5041355;28;20378;-69
2022/09/20 00:15:33;;;;;;;6.57;2.10;;;11.40;99.90;;;;;;5060443;28;20379;-69
2022/09/20 00:17:58;;;;;;;10.02;2.65;;;11.40;99.90;;;;;;5059490;28;20108;-68
2022/09/20 00:20:25;;;;;;;4.93;1.83;;;11.40;99.90;;;;;;5041267;28;20529;-70
2022/09/20 00:22:51;;;;;;;;;;;11.40;99.90;;;;;;5060911;28;20025;-69
2022/09/20 00:25:17;;;;;;;10.18;2.72;;;11.40;99.90;;;;;;5061939;28;19996;-70
2022/09/20 00:27:44;;;;;;;;;;;11.40;99.90;;;;;;5062364;28;20078;-69
2022/09/20 00:30:11;;;;;;;9.60;2.08;;;11.40;99.90;;;;;;5045976;28;20331;-69
2022/09/20 00:32:37;;;;;;;7.28;2.33;;;11.40;99.90;;;;;;5062124;28;20025;-69
2022/09/20 00:35:09;;;;;;;8.47;2.23;;;11.40;99.90;;;;;;5061862;28;20032;-69
2022/09/20 00:37:40;;;;;;;4.93;2.25;;;11.40;99.90;;;;;;5062245;28;20017;-70
2022/09/20 00:40:08;;;;;;;8.00;1.98;;;11.30;99.90;;;;;;5042450;28;20029;-69
2022/09/20 00:42:34;;;;;;;6.68;2.08;;;11.20;99.90;;;;;;5060044;28;20381;-68
2022/09/20 00:45:03;;;;;;;4.75;1.70;;;11.20;99.90;;;;;;5059776;28;20033;-69
2022/09/20 00:47:42;;;;;;;5.97;2.00;;;11.20;99.90;;;;;;5060846;28;20104;-70
2022/09/20 00:50:22;;;;;;;8.63;2.10;;;11.20;99.90;;;;;;5071600;22;20059;-64
2022/09/20 00:52:57;;;;;;;3.85;2.00;;;11.10;99.90;;;;;;5055501;28;20068;-64
2022/09/20 00:55:23;;;;;;;6.38;2.17;;;11.10;99.90;;;;;;5054340;28;20445;-65
2022/09/20 00:57:49;;;;;;;7.72;1.80;;;11.10;99.90;;;;;;5055160;28;20029;-64
2022/09/20 01:00:15;;;;;;;10.15;2.00;;;11.00;99.90;;;;;;5054928;28;20028;-65
2022/09/20 01:02:46;;;;;;;5.82;2.15;;;11.00;99.90;;;;;;5055098;28;20055;-64
2022/09/20 01:05:14;;;;;;;5.22;2.33;;;10.90;99.90;;;;;;5053576;28;20033;-65
2022/09/20 01:07:41;;;;;;;5.38;1.50;;;11.10;99.90;;;;;;5054989;28;20033;-66
2022/09/20 01:10:07;;;;;;;3.97;1.63;;;11.10;99.90;;;;;;5053308;28;20025;-65
2022/09/20 01:12:34;;;;;;;8.73;1.73;;;11.00;99.90;;;;;;5054663;28;20082;-65
2022/09/20 01:15:02;;;;;;;7.00;1.70;;;11.10;99.90;;;;;;5055423;28;20338;-65
2022/09/20 01:17:31;;;;;;;6.72;2.40;;;11.10;99.90;;;;;;5053933;28;20116;-64
2022/09/20 01:20:14;;;;;;;5.18;2.10;;;11.10;99.90;;;;;;5054445;28;20029;-65
2022/09/20 01:23:02;;;;;;;8.02;2.08;;;11.00;99.90;;;;;;5054526;28;20024;-65
2022/09/20 01:25:45;;;;;;;7.93;2.00;;;11.10;99.90;;;;;;5054446;28;20029;-65
2022/09/20 01:28:11;;;;;;;6.40;2.53;;;11.00;99.90;;;;;;5054322;28;20024;-65
2022/09/20 01:30:46;;;;;;;7.10;1.90;;;11.10;99.90;;;;;;5054325;28;20040;-65
2022/09/20 01:33:20;;;;;;;6.63;1.90;;;11.10;99.90;;;;;;5054118;28;20039;-64
2022/09/20 01:35:50;;;;;;;4.45;1.98;;;11.10;99.90;;;;;;5052881;28;20504;-65
2022/09/20 01:38:35;;;;;;;9.75;1.90;;;11.00;99.90;;;;;;5054419;28;20466;-65
2022/09/20 01:41:04;;;;;;;7.63;2.13;;;11.00;99.90;;;;;;5052768;28;20113;-64
2022/09/20 01:43:38;;;;;;;8.02;2.03;;;11.00;99.90;;;;;;5054196;28;20500;-64
2022/09/20 01:46:20;;;;;;;6.40;1.90;;;11.00;99.90;;;;;;5054072;28;20032;-64
2022/09/20 01:48:48;;;;;;;9.93;2.00;;;11.00;99.90;;;;;;5054184;28;20500;-64
2022/09/20 01:51:56;;;;;;;6.78;2.08;;;10.90;99.90;;;;;;5053660;28;20037;-62
2022/09/20 01:54:56;;;;;;;8.65;2.20;;;10.90;99.90;;;;;;5054158;28;20100;-65
2022/09/20 01:58:07;;;;;;;11.50;1.45;;;10.90;99.90;;;;;;5045531;28;20029;-65
2022/09/20 02:00:54;;;;;;;6.82;1.65;;;10.90;99.90;;;;;;5054152;28;20017;-66
2022/09/20 02:03:54;;;;;;;5.07;1.67;;;10.80;99.90;;;;;;5052410;28;20029;-65
2022/09/20 02:06:41;;;;;;;5.20;2.13;;;11.00;99.90;;;;;;5053505;28;20029;-65
2022/09/20 02:09:42;;;;;;;5.85;1.73;;;11.00;99.90;;;;;;5052216;28;20116;-65
2022/09/20 02:12:24;;;;;;;4.20;1.60;;;11.10;99.90;;;;;;5053605;28;20056;-65
2022/09/20 02:15:13;;;;;;;8.82;1.98;;;11.10;99.90;;;;;;5054224;28;20025;-65
2022/09/20 02:17:57;;;;;;;5.70;1.63;;;11.00;99.90;;;;;;5053999;28;20029;-65
2022/09/20 02:20:35;;;;;;;3.08;1.55;;;11.00;99.90;;;;;;5053953;28;20387;-65
2022/09/20 02:23:31;;;;;;;7.43;1.63;;;11.10;99.90;;;;;;5053298;28;20116;-65
2022/09/20 02:26:06;;;;;;;4.30;1.48;;;11.10;99.90;;;;;;5053734;28;20025;-65
2022/09/20 02:29:15;;;;;;;6.53;1.80;;;11.10;99.90;;;;;;5053705;28;20381;-65
2022/09/20 02:32:10;;;;;;;5.57;2.00;;;11.20;99.90;;;;;;5051705;28;20112;-64
2022/09/20 02:35:04;;;;;;;6.25;1.92;;;11.10;99.90;;;;;;5053149;28;20028;-64
2022/09/20 02:38:04;;;;;;;8.10;1.92;;;11.10;99.90;;;;;;5051717;28;20036;-65
2022/09/20 02:40:53;;;;;;;7.20;2.00;;;11.20;99.90;;;;;;5051628;28;20032;-64
2022/09/20 02:43:39;;;;;;;5.05;1.60;;;11.10;99.90;;;;;;5053457;28;20104;-64
2022/09/20 02:46:27;;;;;;;9.23;1.88;;;11.20;99.90;;;;;;5053400;28;20057;-64
2022/09/20 02:49:21;;;;;;;10.05;1.75;;;11.20;99.90;;;;;;5053337;28;20116;-66
2022/09/20 02:51:55;;;;;;;7.35;2.10;;;11.20;99.90;;;;;;5032883;28;20040;-65
2022/09/20 02:54:52;;;;;;;5.70;1.90;;;11.20;99.90;;;;;;5053566;28;20057;-64
2022/09/20 02:57:23;;;;;;;6.25;2.08;;;11.10;99.90;;;;;;5053621;28;20410;-64
2022/09/20 03:00:04;;;;;;;5.32;1.60;;;11.30;99.90;;;;;;5051696;28;20107;-64
2022/09/20 03:02:38;;;;;;;3.50;1.48;;;11.40;99.90;;;;;;5052893;28;20032;-64
2022/09/20 03:05:17;;;;;;;7.07;1.83;;;11.30;99.90;;;;;;5053110;28;20060;-64
2022/09/20 03:07:43;;;;;;;6.30;1.85;;;11.30;99.90;;;;;;5053284;28;20112;-65
2022/09/20 03:10:19;;;;;;;3.87;1.80;;;11.30;99.90;;;;;;5052640;28;20087;-65
2022/09/20 03:13:00;;;;;;;4.32;1.70;;;11.30;99.90;;;;;;5055609;28;20112;-65
2022/09/20 03:15:25;;;;;;;4.68;1.70;;;11.30;99.90;;;;;;5057163;28;20060;-65
2022/09/20 03:18:11;;;;;;;12.90;2.17;;;11.30;99.90;;;;;;5056942;28;20402;-64
2022/09/20 03:20:52;;;;;;;4.00;2.08;;;11.30;99.90;;;;;;5057109;28;20021;-65
2022/09/20 03:23:48;;;;;;;6.30;1.83;;;11.40;99.90;;;;;;5056873;28;20553;-65
2022/09/20 03:26:53;;;;;;;7.75;2.22;;;11.40;99.90;;;;;;5056738;28;20082;-65
2022/09/20 03:29:41;;;;;;;3.13;1.50;;;11.40;99.90;;;;;;5056906;28;20437;-64
2022/09/20 03:32:07;;;;;;;4.13;1.58;;;11.40;99.90;;;;;;5056770;28;20124;-65
2022/09/20 03:35:01;;;;;;;6.90;1.80;;;11.30;99.90;;;;;;5056588;28;20033;-66
2022/09/20 03:37:45;;;;;;;6.72;2.03;;;11.40;99.90;;;;;;5056608;28;20487;-65
2022/09/20 03:40:29;;;;;;;4.20;1.65;;;11.40;99.90;;;;;;5057028;28;20359;-65
2022/09/20 03:43:13;;;;;;;6.55;1.92;;;11.40;99.90;;;;;;5057059;28;20036;-64
2022/09/20 03:46:16;;;;;;;4.53;1.77;;;11.40;99.90;;;;;;5057321;28;20025;-65
2022/09/20 03:48:54;;;;;;;8.07;1.70;;;11.40;99.90;;;;;;5056686;28;20052;-65
2022/09/20 03:51:41;;;;;;;6.65;1.95;;;11.20;99.90;;;;;;5056291;28;20073;-65
2022/09/20 03:54:44;;;;;;;5.05;2.10;;;11.30;99.90;;;;;;5056493;28;20465;-65
2022/09/20 03:57:27;;;;;;;6.38;1.58;;;11.30;99.90;;;;;;5056482;28;20033;-66
2022/09/20 04:00:06;;;;;;;4.07;1.65;;;11.30;99.90;;;;;;5056583;28;20064;-66
2022/09/20 04:02:45;;;;;;;8.13;2.20;;;11.40;99.90;;;;;;5056910;28;20100;-64
2022/09/20 04:05:29;;;;;;;6.95;1.60;;;11.30;99.90;;;;;;5056911;28;20028;-65
2022/09/20 04:08:24;;;;;;;5.55;2.28;;;11.30;99.90;;;;;;5056237;28;20027;-64
2022/09/20 04:11:16;;;;;;;7.68;1.83;;;11.30;99.90;;;;;;5055624;28;20032;-65
2022/09/20 04:14:15;;;;;;;6.63;1.88;;;11.20;99.90;;;;;;5055494;28;20044;-64
2022/09/20 04:17:01;;;;;;;6.32;1.98;;;11.20;99.90;;;;;;5054880;28;20021;-65
2022/09/20 04:19:43;;;;;;;6.70;2.30;;;11.20;99.90;;;;;;5056308;28;20032;-66
2022/09/20 04:22:09;;;;;;;8.43;2.22;;;11.20;99.90;;;;;;5055896;28;20021;-66
2022/09/20 04:24:51;;;;;;;8.95;2.13;;;11.10;99.90;;;;;;5055810;28;20108;-66
2022/09/20 04:27:38;;;;;;;7.70;1.95;;;11.10;99.90;;;;;;5056120;28;20033;-64
2022/09/20 04:30:19;;;;;;;7.93;2.22;;;11.00;99.90;;;;;;5056101;28;20032;-66
2022/09/20 04:33:05;;;;;;;5.30;2.20;;;11.10;99.90;;;;;;5054188;28;20503;-66
2022/09/20 04:36:28;;;;;;;9.63;2.40;;;11.10;99.90;;;;;;5055896;28;20028;-65
2022/09/20 04:39:35;;;;;;;5.63;2.08;;;11.10;99.90;;;;;;5055625;28;20021;-64
2022/09/20 04:42:19;;;;;;;31.33;3.05;;;11.00;99.90;;;;;;5048042;28;20426;-63
2022/09/20 04:45:16;;;;;;;6.22;1.88;;;10.90;99.90;;;;;;5055715;28;20025;-64
2022/09/20 04:48:10;;;;;;;9.43;2.30;;;11.00;99.90;;;;;;5055555;28;20044;-65
2022/09/20 04:50:57;;;;;;;7.90;2.50;;;10.90;99.90;;;;;;5053613;28;20037;-65
2022/09/20 04:53:56;;;;;;;7.78;2.30;;;11.00;99.90;;;;;;5055059;28;20021;-66
2022/09/20 04:57:03;;;;;;;9.10;2.83;;;11.00;99.90;;;;;;5053370;28;20074;-65
2022/09/20 04:59:52;;;;;;;8.57;2.42;;;10.90;99.90;;;;;;5055084;28;20543;-65
2022/09/20 05:02:56;;;;;;;9.68;2.30;;;10.80;99.90;;;;;;5054826;28;20150;-64
2022/09/20 05:05:44;;;;;;;8.90;2.33;;;10.60;99.90;;;;;;5054808;28;20166;-65
2022/09/20 05:08:44;;;;;;;8.55;2.30;;;10.50;99.90;;;;;;5053302;28;20025;-64
2022/09/20 05:11:42;;;;;;;6.25;2.10;;;10.40;99.90;;;;;;5054673;28;20045;-64
2022/09/20 05:14:31;;;;;;;9.20;2.10;;;10.40;99.90;;;;;;5054823;28;20103;-64
2022/09/20 05:16:59;;;;;;;6.88;2.13;;;10.40;99.90;;;;;;5054885;28;20021;-66
2022/09/20 05:19:43;;;;;;;6.45;1.98;;;10.50;99.90;;;;;;5054853;28;20032;-66
2022/09/20 05:22:27;;;;;;;6.95;2.00;;;10.40;99.90;;;;;;5054522;28;20430;-66
2022/09/20 05:24:57;;;;;;;5.70;2.08;;;10.40;99.90;;;;;;5054415;28;20029;-66
2022/09/20 05:27:40;;;;;;;10.25;2.20;;;10.40;99.90;;;;;;5054602;28;20025;-66
2022/09/20 05:30:15;;;;;;;6.03;2.00;;;10.40;99.90;;;;;;5054699;28;20029;-65
2022/09/20 05:32:55;;;;;;;5.57;2.20;;;10.40;99.90;;;;;;5055000;28;20025;-65
2022/09/20 05:35:25;;;;;;;6.63;2.20;;;10.40;99.90;;;;;;5052739;28;20363;-65
2022/09/20 05:38:19;;;;;;;8.73;2.10;;;10.60;99.90;;;;;;5053835;28;20166;-65
2022/09/20 05:40:58;;;;;;;8.45;2.30;;;10.80;99.90;;;;;;5052560;28;20482;-66
2022/09/20 05:43:32;;;;;;;6.95;3.63;;;10.70;99.90;;;;;;5054588;28;20028;-66
2022/09/20 05:46:02;;;;;;;9.38;2.47;;;10.70;99.90;;;;;;5054121;28;20040;-65
2022/09/20 05:49:06;;;;;;;4.85;1.80;;;10.80;99.90;;;;;;5054241;28;20025;-66
2022/09/20 05:51:56;;;;;;;6.35;1.73;;;10.80;99.90;;;;;;5053810;28;20455;-65
2022/09/20 05:54:44;;;;;;;5.82;2.45;;;10.80;99.90;;;;;;5054020;28;20063;-65
2022/09/20 05:57:27;;;;;;;5.68;1.77;;;10.80;99.90;;;;;;5054124;28;20064;-66
2022/09/20 06:00:04;;;;;;;7.70;1.67;;;10.70;99.90;;;;;;5053864;28;20063;-67
2022/09/20 06:02:35;;;;;;;12.35;1.95;;;10.80;99.90;;;;;;5054567;28;20032;-66
2022/09/20 06:05:41;;;;;;;8.93;2.88;;;10.80;99.90;;;;;;5053961;28;20388;-66
2022/09/20 06:08:32;;;;;;;9.48;2.22;;;10.80;99.90;;;;;;5053978;28;20044;-65
2022/09/20 06:11:31;;;;;;;11.25;2.20;;;10.90;99.90;;;;;;5053808;28;20134;-66
2022/09/20 06:14:16;;;;;;;10.00;2.55;;;11.10;99.90;;;;;;5053550;28;20036;-65
2022/09/20 06:16:42;;;;;;;6.80;2.08;;;11.30;99.90;;;;;;5054045;28;20024;-65
2022/09/20 06:19:27;;;;;;;8.82;2.67;;;11.40;99.90;;;;;;5053403;28;20021;-66
2022/09/20 06:21:57;;;;;;;7.40;2.08;;;11.40;99.90;;;;;;5052022;28;20156;-65
2022/09/20 06:24:38;;;;;;;8.15;2.35;;;11.40;99.90;;;;;;5053115;28;20021;-65
2022/09/20 06:27:11;;;;;;;7.30;2.17;;;11.40;99.90;;;;;;5053600;28;20019;-66
2022/09/20 06:29:42;;;;;;;7.70;1.83;;;11.50;99.90;;;;;;5053269;28;20094;-65
2022/09/20 06:32:08;;;;;;;5.25;2.10;;;11.60;99.90;;;;;;5053419;28;20472;-65
2022/09/20 06:34:34;;;;;;;5.83;2.67;;;11.70;99.90;;;;;;5053514;28;20064;-67
2022/09/20 06:42:53;;;;;;;7.45;2.20;;;12.20;99.90;;;;;;5053023;28;20040;-65
2022/09/20 06:45:19;;;;;;;7.40;2.20;;;12.20;99.90;;;;;;5053020;28;20029;-65
2022/09/20 06:47:44;;;;;;;7.90;1.77;;;12.40;99.90;;;;;;5052224;28;20410;-65
2022/09/20 06:50:15;;;;;;;7.60;2.30;;;12.50;99.90;;;;;;5053496;28;20039;-65
2022/09/20 06:52:41;;;;;;;10.00;2.92;;;12.60;99.90;;;;;;5053076;28;20025;-65
2022/09/20 06:55:21;;;;;;;8.82;2.53;;;12.70;99.90;;;;;;5053203;28;20399;-65
2022/09/20 06:57:47;;;;;;;11.98;3.63;;;12.70;99.90;;;;;;5053452;28;20137;-65
2022/09/20 07:00:14;;;;;;;10.43;2.75;;;12.60;99.90;;;;;;5052944;28;20028;-65
2022/09/20 07:02:41;;;;;;;9.45;2.30;;;12.60;99.90;;;;;;5052772;28;20393;-64
2022/09/20 07:05:13;;;;;;;7.25;2.38;;;12.60;99.90;;;;;;5053126;28;20581;-64
2022/09/20 07:07:39;;;;;;;7.70;2.15;;;12.60;99.90;;;;;;5053246;28;20025;-65
2022/09/20 07:10:05;;;;;;;7.38;2.28;;;12.70;99.90;;;;;;5053154;28;20036;-64
2022/09/20 07:12:32;;;;;;;4.60;2.00;;;12.70;99.90;;;;;;5053115;28;20051;-65
2022/09/20 07:14:58;;;;;;;6.25;2.28;;;12.80;99.90;;;;;;5052685;28;20449;-65
2022/09/20 07:17:24;;;;;;;11.83;2.47;;;12.80;99.90;;;;;;5053330;28;20017;-64
2022/09/20 07:19:50;;;;;;;6.57;2.03;;;12.80;99.90;;;;;;5052971;28;20270;-64
2022/09/20 07:22:15;;;;;;;8.32;2.15;;;12.80;99.90;;;;;;5053492;28;20084;-64
2022/09/20 07:24:43;;;;;;;8.30;2.70;;;12.80;99.90;;;;;;5053060;28;20021;-65
2022/09/20 07:27:10;;;;;;;8.93;2.20;;;12.70;99.90;;;;;;5052823;28;20021;-65
2022/09/20 07:29:36;;;;;;;7.05;2.05;;;12.70;99.90;;;;;;5052638;28;20506;-65
2022/09/20 07:32:02;;;;;;;8.63;2.35;;;12.60;99.90;;;;;;5052415;28;20422;-64
2022/09/20 07:34:28;;;;;;;8.45;2.65;;;12.60;99.90;;;;;;5052911;28;20040;-65
2022/09/20 07:36:56;;;;;;;6.90;2.50;;;12.40;99.90;;;;;;5052765;28;20487;-66
2022/09/20 07:39:21;;;;;;;10.43;2.45;;;12.30;99.90;;;;;;5052701;28;20339;-65
2022/09/20 07:41:50;;;;;;;8.45;2.85;;;12.40;99.90;;;;;;5053050;28;20100;-65
2022/09/20 07:44:26;;;;;;;9.05;2.50;;;12.50;99.90;;;;;;5053479;28;20078;-65
2022/09/20 07:46:58;;;;;;;7.93;1.80;;;12.60;99.90;;;;;;5052610;28;20075;-65
2022/09/20 07:49:25;;;;;;;7.03;2.30;;;12.80;99.90;;;;;;5052446;28;20394;-65
2022/09/20 07:51:52;;;;;;;8.00;2.63;;;13.00;99.90;;;;;;5052190;28;20033;-65
2022/09/20 07:54:18;;;;;;;8.13;2.70;;;13.20;99.90;;;;;;5052474;28;20128;-65
2022/09/20 07:56:44;;;;;;;;;;;13.40;99.90;;;;;;5052779;28;20051;-65
2022/09/20 07:59:10;;;;;;;53.28;20.25;;;13.40;99.90;;;;;;5055446;28;20357;-65
2022/09/20 08:01:36;;;;;;;9.82;2.13;;;13.50;99.90;;;;;;5055802;28;20028;-65
2022/09/20 08:04:04;;;;;;;5.72;2.40;;;13.70;99.90;;;;;;5056334;28;20086;-65
2022/09/20 08:06:30;;;;;;;5.75;2.15;;;14.00;99.90;;;;;;5056096;28;20048;-65
2022/09/20 08:08:56;;;;;;;7.63;2.28;;;14.20;99.90;;;;;;5056025;28;20434;-65
2022/09/20 08:11:24;;;;;;;5.17;1.73;;;14.40;99.90;;;;;;5056048;28;20064;-65
2022/09/20 08:13:51;;;;;;;12.77;2.70;;;14.50;99.90;;;;;;5056042;28;20090;-65
2022/09/20 08:16:18;;;;;;;5.35;1.85;;;14.70;99.90;;;;;;5055972;28;20021;-65
2022/09/20 08:18:45;;;;;;;6.05;1.75;;;14.90;99.90;;;;;;5055690;28;20029;-66
2022/09/20 08:21:12;;;;;;;8.85;2.53;;;15.20;99.90;;;;;;5056382;28;20515;-65
2022/09/20 08:23:42;;;;;;;6.47;2.08;;;15.10;99.90;;;;;;5054456;28;20087;-64
2022/09/20 08:26:13;;;;;;;8.23;1.95;;;14.80;99.90;;;;;;5054408;28;20032;-63
2022/09/20 08:28:40;;;;;;;7.82;2.05;;;14.70;99.90;;;;;;5056187;28;20503;-64
2022/09/20 08:31:10;;;;;;;10.05;2.05;;;14.80;99.90;;;;;;5055534;28;20120;-65
2022/09/20 08:33:36;;;;;;;6.72;1.90;;;15.00;99.90;;;;;;5055684;28;20021;-65
2022/09/20 08:36:03;;;;;;;14.55;2.45;;;15.40;99.90;;;;;;5055833;28;20021;-65
2022/09/20 08:38:30;;;;;;;4.97;1.63;;;15.50;99.90;;;;;;5055455;28;20532;-65
2022/09/20 08:41:01;;;;;;;6.47;1.73;;;15.50;99.90;;;;;;5055471;28;20021;-64
2022/09/20 08:43:33;;;;;;;8.52;2.30;;;15.70;99.90;;;;;;5055953;28;20044;-64
2022/09/20 08:46:01;;;;;;;6.72;1.88;;;16.20;99.90;;;;;;5055420;28;20029;-65
2022/09/20 08:48:32;;;;;;;3.63;1.40;;;16.60;99.90;;;;;;5055781;28;20029;-65
2022/09/20 08:51:00;;;;;;;7.22;1.70;;;16.80;99.90;;;;;;5055622;28;20039;-64
2022/09/20 08:53:27;;;;;;;9.32;2.10;;;16.60;99.90;;;;;;5055105;28;20500;-65
2022/09/20 08:55:58;;;;;;;4.97;1.70;;;16.80;99.90;;;;;;5055029;28;20544;-65
2022/09/20 08:58:27;;;;;;;6.88;1.67;;;17.40;99.90;;;;;;5055290;28;20420;-65
2022/09/20 09:00:55;;;;;;;11.15;2.08;;;18.30;99.90;;;;;;5053471;28;20021;-65
2022/09/20 09:03:20;;;;;;;11.25;1.50;;;17.90;99.90;;;;;;5055124;28;20381;-65
2022/09/20 09:05:48;;;;;;;5.95;1.50;;;18.80;99.90;;;;;;5055174;28;20029;-65
2022/09/20 09:08:20;;;;;;;6.05;1.90;;;20.40;97.70;;;;;;5054870;28;20029;-65
2022/09/20 09:10:53;;;;;;;7.20;2.17;;;22.60;95.00;;;;;;5053797;28;20033;-65
2022/09/20 09:13:52;;;;;;;5.57;1.77;;;24.30;89.80;;;;;;5053435;28;20029;-65
2022/09/20 09:16:18;;;;;;;7.53;1.75;;;25.50;87.40;;;;;;5051918;28;20061;-65
2022/09/20 09:18:46;;;;;;;9.43;1.63;;;27.60;79.10;;;;;;5054911;28;20025;-65
2022/09/20 09:21:17;;;;;;;7.25;1.70;;;27.00;77.00;;;;;;5054395;28;20053;-65
2022/09/20 09:24:17;;;;;;;4.57;2.08;;;28.20;75.40;;;;;;5054651;28;20033;-65
2022/09/20 09:26:42;;;;;;;4.72;1.45;;;29.50;71.60;;;;;;5053644;28;20090;-65
2022/09/20 09:29:18;;;;;;;4.82;1.80;;;29.40;69.20;;;;;;5054499;28;20133;-65
2022/09/20 09:31:45;;;;;;;6.63;1.73;;;27.40;69.10;;;;;;5054313;28;20025;-65
2022/09/20 09:34:25;;;;;;;6.78;1.90;;;24.90;74.00;;;;;;5054377;28;20025;-65
2022/09/20 09:36:53;;;;;;;4.68;1.55;;;23.80;75.40;;;;;;5054450;28;20021;-65
2022/09/20 09:39:30;;;;;;;8.10;1.83;;;22.80;78.60;;;;;;5054229;28;20477;-65
2022/09/20 09:42:00;;;;;;;7.45;1.70;;;22.20;80.00;;;;;;5054391;28;20119;-64
2022/09/20 09:44:28;;;;;;;5.47;1.65;;;22.00;80.40;;;;;;5054107;28;20122;-65
2022/09/20 09:46:55;;;;;;;5.95;1.65;;;20.30;83.40;;;;;;5053988;28;20025;-65
2022/09/20 09:49:26;;;;;;;5.90;1.73;;;20.00;85.10;;;;;;5054229;28;20021;-64
2022/09/20 09:51:59;;;;;;;5.45;1.50;;;19.90;85.10;;;;;;5054217;28;20025;-65
2022/09/20 09:54:27;;;;;;;5.63;1.92;;;20.00;85.60;;;;;;5054414;28;20108;-64
2022/09/20 09:57:28;;;;;;;4.95;1.73;;;19.90;86.50;;;;;;5054439;28;20040;-66
2022/09/20 10:00:20;;;;;;;5.50;1.42;;;19.60;88.80;;;;;;5053745;28;20060;-65
2022/09/20 10:03:09;;;;;;;8.68;1.50;;;19.60;88.40;;;;;;5052382;28;20041;-65
2022/09/20 10:06:04;;;;;;;9.35;2.50;;;19.80;88.70;;;;;;5053659;28;20028;-64
2022/09/20 10:09:02;;;;;;;5.95;1.55;;;20.70;87.50;;;;;;5054320;28;20384;-65
2022/09/20 10:11:57;;;;;;;7.78;1.38;;;21.30;85.00;;;;;;5053619;28;20104;-65
2022/09/20 10:14:57;;;;;;;7.55;1.92;;;22.40;82.70;;;;;;5053923;28;20049;-65
2022/09/20 10:17:25;;;;;;;4.93;1.58;;;22.50;79.70;;;;;;5053681;28;20017;-64
2022/09/20 10:20:20;;;;;;;4.47;1.40;;;22.10;79.70;;;;;;5053740;28;20025;-65
2022/09/20 10:23:22;;;;;;;7.97;1.83;;;21.90;81.60;;;;;;5054079;28;20036;-64
2022/09/20 10:26:04;;;;;;;5.40;1.80;;;21.90;81.90;;;;;;5052252;28;20052;-65
2022/09/20 10:28:53;;;;;;;5.07;1.35;;;21.50;81.20;;;;;;5051999;28;20068;-65
2022/09/20 10:31:42;;;;;;;7.50;1.75;;;20.50;82.10;;;;;;5053771;28;20428;-65
2022/09/20 10:34:18;;;;;;;4.28;1.50;;;19.60;84.80;;;;;;5053771;28;20500;-65
2022/09/20 10:36:52;;;;;;;6.97;1.42;;;19.20;86.90;;;;;;5054009;28;20033;-65
2022/09/20 10:39:38;;;;;;;9.95;4.28;;;19.10;86.90;;;;;;5053030;28;20031;-65
2022/09/20 10:45:17;;;;;;;6.85;1.33;;;18.60;87.90;;;;;;5053234;28;20516;-65
2022/09/20 10:47:57;;;;;;;8.02;1.67;;;18.20;88.70;;;;;;5053291;28;20029;-65
2022/09/20 10:50:33;;;;;;;7.50;1.52;;;17.80;90.30;;;;;;5053262;28;20178;-64
2022/09/20 10:53:12;;;;;;;9.47;1.87;;;17.80;90.40;;;;;;5053691;28;20029;-65
2022/09/20 10:56:01;;;;;;;8.90;1.30;;;17.80;90.30;;;;;;5051627;28;20259;-65
2022/09/20 10:58:34;;;;;;;7.25;1.73;;;17.30;91.60;;;;;;5052582;28;20021;-64
2022/09/20 11:01:44;;;;;;;4.65;1.30;;;17.40;91.30;;;;;;5052746;28;20330;-64
2022/09/20 11:04:34;;;;;;;5.53;0.98;;;18.00;91.00;;;;;;5030709;28;20044;-65
2022/09/20 11:07:07;;;;;;;6.85;1.20;;;17.80;87.80;;;;;;5030645;28;20033;-64
2022/09/20 11:09:39;;;;;;;7.00;1.35;;;17.70;88.80;;;;;;5031340;28;20037;-65
2022/09/20 11:12:10;;;;;;;3.40;0.90;;;17.60;89.20;;;;;;5030642;28;20033;-65
2022/09/20 11:14:52;;;;;;;4.00;1.13;;;17.60;90.00;;;;;;5030993;28;20464;-65
2022/09/20 11:17:37;;;;;;;5.55;1.30;;;17.80;88.30;;;;;;5030767;28;20505;-64
2022/09/20 11:20:18;;;;;;;6.88;1.30;;;18.10;87.80;;;;;;5014070;28;20120;-64
2022/09/20 11:22:47;;;;;;;4.55;0.85;;;18.20;86.00;;;;;;5031423;28;20042;-64
2022/09/20 11:25:16;;;;;;;6.07;1.55;;;17.90;85.90;;;;;;5031313;28;20041;-65
2022/09/20 11:28:10;;;;;;;7.00;1.15;;;17.80;86.50;;;;;;5030836;28;20041;-65
2022/09/20 11:30:42;;;;;;;5.57;1.40;;;17.70;87.60;;;;;;5023142;28;20044;-65
2022/09/20 11:33:23;;;;;;;4.47;1.23;;;17.70;88.90;;;;;;5032120;28;20371;-64
2022/09/20 11:35:56;;;;;;;6.20;1.05;;;17.60;89.30;;;;;;5034864;28;20036;-65
2022/09/20 11:38:39;;;;;;;6.50;1.10;;;17.70;88.90;;;;;;5035186;28;20057;-65
2022/09/20 11:41:19;;;;;;;5.22;1.13;;;17.90;88.60;;;;;;5049792;28;20489;-65
2022/09/20 11:43:46;;;;;;;4.85;0.90;;;17.90;88.90;;;;;;5056484;28;20041;-65
2022/09/20 11:46:20;;;;;;;5.80;1.50;;;17.60;89.40;;;;;;5056543;28;20021;-65
2022/09/20 11:48:52;;;;;;;8.60;4.22;;;17.50;88.60;;;;;;5056654;28;20094;-65
2022/09/20 11:51:39;;;;;;;9.05;3.55;;;17.30;88.80;;;;;;5055892;28;20037;-65
2022/09/20 11:54:45;;;;;;;3.38;0.80;;;17.30;88.20;;;;;;5056404;28;20079;-65
2022/09/20 11:57:15;;;;;;;3.15;0.85;;;17.20;84.20;;;;;;5056253;28;20048;-65
2022/09/20 11:59:49;;;;;;;5.18;1.33;;;17.00;84.60;;;;;;5054435;28;20025;-65
2022/09/20 12:02:35;;;;;;;6.75;1.10;;;17.10;83.80;;;;;;5056077;28;20021;-65
2022/09/20 12:05:04;;;;;;;7.30;1.38;;;17.30;84.40;;;;;;5056320;28;20025;-65
2022/09/20 12:07:38;;;;;;;2.65;0.85;;;17.30;85.20;;;;;;5055844;28;20064;-64
2022/09/20 12:10:07;;;;;;;2.70;0.85;;;17.70;85.20;;;;;;5055925;28;20029;-61
2022/09/20 12:12:43;;;;;;;4.45;0.80;;;17.50;84.90;;;;;;5055674;28;20435;-64
2022/09/20 12:15:24;;;;;;;3.70;1.02;;;17.30;86.60;;;;;;5054794;28;20017;-65
2022/09/20 12:17:50;;;;;;;3.75;1.05;;;17.30;86.20;;;;;;5053933;28;20159;-66
2022/09/20 12:20:33;;;;;;;4.20;0.73;;;17.10;87.60;;;;;;5055728;28;20017;-64
2022/09/20 12:23:39;;;;;;;5.05;0.90;;;17.20;86.20;;;;;;5055627;28;20029;-64
2022/09/20 12:26:30;;;;;;;6.03;1.00;;;17.10;87.00;;;;;;5055511;28;20037;-65
2022/09/20 12:29:08;;;;;;;3.30;1.15;;;17.10;87.60;;;;;;5055614;28;20033;-63
2022/09/20 12:31:38;;;;;;;3.33;0.93;;;17.10;87.40;;;;;;5055782;28;20417;-66
2022/09/20 12:34:09;;;;;;;5.40;1.20;;;17.10;87.70;;;;;;5055539;28;20021;-62
2022/09/20 12:36:37;;;;;;;3.13;0.90;;;17.30;88.00;;;;;;5055501;28;20017;-67
2022/09/20 12:39:09;;;;;;;6.82;1.58;;;17.30;86.90;;;;;;5056245;28;20444;-66
2022/09/20 12:41:50;;;;;;;4.22;0.90;;;17.60;86.70;;;;;;5055288;28;20021;-66
2022/09/20 12:44:55;;;;;;;2.88;1.10;;;17.90;86.00;;;;;;5054026;28;20036;-64
2022/09/20 12:47:26;;;;;;;4.55;1.30;;;17.90;85.30;;;;;;5054676;28;20512;-65
2022/09/20 12:52:54;;;;;;;4.35;1.15;;;18.10;86.60;;;;;;5055236;28;20176;-63
2022/09/20 12:58:18;;;;;;;3.90;1.42;;;18.00;89.40;;;;;;5054815;28;20087;-63
2022/09/20 13:00:44;;;;;;;6.68;1.70;;;18.10;89.70;;;;;;5052036;28;20120;-63
2022/09/20 13:03:10;;;;;;;5.47;1.70;;;18.20;88.30;;;;;;5053716;28;20090;-64
2022/09/20 13:05:37;;;;;;;;;;;18.20;88.50;;;;;;5053147;28;20648;-63
2022/09/20 13:08:17;;;;;;;3.20;1.20;;;18.40;87.80;;;;;;5051421;28;19937;-62
2022/09/20 13:10:48;;;;;;;4.97;1.20;;;18.50;86.90;;;;;;5052756;28;20396;-63
2022/09/20 13:13:26;;;;;;;4.03;1.23;;;18.30;88.20;;;;;;5054670;28;20391;-64
2022/09/20 13:15:53;;;;;;;7.82;1.73;;;18.20;88.80;;;;;;5055059;28;20029;-63
2022/09/20 13:18:19;;;;;;;4.55;1.33;;;18.20;88.80;;;;;;5053188;28;20108;-64
2022/09/20 13:20:45;;;;;;;5.38;1.42;;;18.20;88.40;;;;;;5054537;28;20115;-64
2022/09/20 13:23:27;;;;;;;2.43;1.20;;;18.10;88.20;;;;;;5054477;28;20068;-64
2022/09/20 13:25:56;;;;;;;6.05;1.40;;;18.10;89.20;;;;;;5055308;28;20260;-65
2022/09/20 13:28:36;;;;;;;3.60;1.42;;;17.80;89.10;;;;;;5055225;28;20064;-64
2022/09/20 13:31:20;;;;;;;4.50;1.17;;;17.70;89.60;;;;;;5053588;28;20098;-63
2022/09/20 13:33:46;;;;;;;3.13;1.00;;;17.60;89.80;;;;;;5054264;28;20079;-63
2022/09/20 13:36:12;;;;;;;5.30;1.20;;;18.00;89.30;;;;;;5054104;28;20029;-63
2022/09/20 13:38:38;;;;;;;3.63;1.02;;;18.10;88.60;;;;;;5054078;28;20367;-63
2022/09/20 13:41:08;;;;;;;2.15;1.25;;;18.20;89.00;;;;;;5053872;28;20091;-63
2022/09/20 13:43:38;;;;;;;2.58;0.90;;;18.20;88.60;;;;;;5053887;28;20017;-64
2022/09/20 13:46:15;;;;;;;1.50;0.80;;;17.90;86.20;;;;;;5054414;28;20021;-64
2022/09/20 13:48:41;;;;;;;4.13;0.90;;;17.60;85.10;;;;;;5054626;28;20029;-64
2022/09/20 13:51:27;;;;;;;2.70;1.27;;;17.50;85.20;;;;;;5054229;28;20100;-63
2022/09/20 13:54:13;;;;;;;3.63;1.05;;;17.40;86.70;;;;;;5053856;28;20492;-64
2022/09/20 13:56:39;;;;;;;3.75;1.00;;;17.30;86.90;;;;;;5053139;28;20118;-64